sensor_id;sensor_type;location;lat;lon;timestamp;pressure;altitude;pressure_sealevel;temperature;humidity
47166;BME280;32930;51.112;13.762;2023-02-02T00:10:36;98979.19;;;5.22;89.15
47166;BME280;32930;51.112;13.762;2023-02-02T00:13:01;98979.06;;;5.16;88.08
47166;BME280;32930;51.112;13.762;2023-02-02T00:15:27;98989.25;;;5.16;88.89
47166;BME280;32930;51.112;13.762;2023-02-02T00:17:52;98974.94;;;5.21;88.31
47166;BME280;32930;51.112;13.762;2023-02-02T03:19:48;98984.59;;;5.40;77.98
47166;BME280;32930;51.112;13.762;2023-02-02T03:24:49;98997.03;;;5.25;79.63
47166;BME280;32930;51.112;13.762;2023-02-02T03:27:34;98986.34;;;5.44;77.85
47166;BME280;32930;51.112;13.762;2023-02-02T03:44:31;99000.16;;;5.58;76.90
47166;BME280;32930;51.112;13.762;2023-02-02T03:52:24;99005.94;;;5.50;76.66
47166;BME280;32930;51.112;13.762;2023-02-02T04:42:48;99040.53;;;5.42;76.84
47166;BME280;32930;51.112;13.762;2023-02-02T04:47:51;99033.91;;;5.50;76.81
47166;BME280;32930;51.112;13.762;2023-02-02T04:50:19;99050.41;;;5.23;77.62
47166;BME280;32930;51.112;13.762;2023-02-02T04:58:24;99054.03;;;5.38;77.87
47166;BME280;32930;51.112;13.762;2023-02-02T05:01:25;99053.03;;;5.28;76.54
47166;BME280;32930;51.112;13.762;2023-02-02T05:22:12;99082.34;;;5.56;77.68
47166;BME280;32930;51.112;13.762;2023-02-02T05:35:30;99094.06;;;5.46;76.51
47166;BME280;32930;51.112;13.762;2023-02-02T05:38:02;99106.50;;;5.32;77.24
47166;BME280;32930;51.112;13.762;2023-02-02T05:40:31;99104.34;;;5.52;76.44
47166;BME280;32930;51.112;13.762;2023-02-02T05:42:59;99098.53;;;5.61;75.29
47166;BME280;32930;51.112;13.762;2023-02-02T05:45:25;99102.66;;;5.53;77.06
47166;BME280;32930;51.112;13.762;2023-02-02T05:47:52;99110.16;;;5.47;76.78
47166;BME280;32930;51.112;13.762;2023-02-02T05:50:26;99118.03;;;5.59;76.99
47166;BME280;32930;51.112;13.762;2023-02-02T05:52:52;99126.34;;;5.50;76.69
47166;BME280;32930;51.112;13.762;2023-02-02T05:55:17;99116.28;;;5.55;76.96
47166;BME280;32930;51.112;13.762;2023-02-02T05:57:44;99133.31;;;5.61;77.31
47166;BME280;32930;51.112;13.762;2023-02-02T06:00:16;99128.09;;;5.54;76.29
47166;BME280;32930;51.112;13.762;2023-02-02T06:02:43;99130.00;;;5.65;76.04
47166;BME280;32930;51.112;13.762;2023-02-02T06:05:09;99134.13;;;5.58;77.55
47166;BME280;32930;51.112;13.762;2023-02-02T06:07:40;99137.66;;;5.65;76.92
47166;BME280;32930;51.112;13.762;2023-02-02T06:10:05;99141.91;;;5.67;77.98
47166;BME280;32930;51.112;13.762;2023-02-02T06:12:34;99157.06;;;5.61;78.22
47166;BME280;32930;51.112;13.762;2023-02-02T06:14:59;99155.28;;;5.55;79.07
47166;BME280;32930;51.112;13.762;2023-02-02T06:17:34;99161.22;;;5.57;79.56
47166;BME280;32930;51.112;13.762;2023-02-02T06:20:03;99162.06;;;5.56;81.15
47166;BME280;32930;51.112;13.762;2023-02-02T06:22:34;99160.25;;;5.51;82.09
47166;BME280;32930;51.112;13.762;2023-02-02T06:25:09;99164.88;;;5.70;85.49
47166;BME280;32930;51.112;13.762;2023-02-02T06:27:37;99173.63;;;5.41;83.94
47166;BME280;32930;51.112;13.762;2023-02-02T06:30:06;99160.19;;;5.46;82.87
47166;BME280;32930;51.112;13.762;2023-02-02T06:32:31;99161.09;;;5.50;82.28
47166;BME280;32930;51.112;13.762;2023-02-02T06:34:57;99176.59;;;5.62;83.68
47166;BME280;32930;51.112;13.762;2023-02-02T06:37:22;99162.00;;;5.53;84.08
47166;BME280;32930;51.112;13.762;2023-02-02T06:39:48;99178.97;;;5.53;84.28
47166;BME280;32930;51.112;13.762;2023-02-02T06:42:14;99171.53;;;5.64;83.06
47166;BME280;32930;51.112;13.762;2023-02-02T06:44:39;99188.28;;;5.52;83.46
47166;BME280;32930;51.112;13.762;2023-02-02T06:47:05;99183.94;;;5.48;84.59
47166;BME280;32930;51.112;13.762;2023-02-02T06:49:36;99187.16;;;5.38;85.96
47166;BME280;32930;51.112;13.762;2023-02-02T06:52:29;99182.28;;;5.49;84.47
47166;BME280;32930;51.112;13.762;2023-02-02T06:55:02;99189.75;;;5.40;83.54
47166;BME280;32930;51.112;13.762;2023-02-02T06:57:44;99197.50;;;5.47;83.96
47166;BME280;32930;51.112;13.762;2023-02-02T07:00:10;99201.75;;;5.48;84.30
47166;BME280;32930;51.112;13.762;2023-02-02T07:02:36;99204.53;;;5.61;83.63
47166;BME280;32930;51.112;13.762;2023-02-02T07:05:08;99200.81;;;5.43;84.41
47166;BME280;32930;51.112;13.762;2023-02-02T07:07:37;99209.56;;;5.56;83.89
47166;BME280;32930;51.112;13.762;2023-02-02T07:10:11;99205.84;;;5.40;84.09
47166;BME280;32930;51.112;13.762;2023-02-02T07:12:56;99212.00;;;5.51;83.22
47166;BME280;32930;51.112;13.762;2023-02-02T07:15:38;99214.78;;;5.62;81.64
47166;BME280;32930;51.112;13.762;2023-02-02T07:18:10;99209.44;;;5.50;83.77
47166;BME280;32930;51.112;13.762;2023-02-02T07:20:35;99211.00;;;5.43;84.30
47166;BME280;32930;51.112;13.762;2023-02-02T07:23:04;99211.97;;;5.50;82.10
47166;BME280;32930;51.112;13.762;2023-02-02T07:25:37;99224.88;;;5.59;82.50
47166;BME280;32930;51.112;13.762;2023-02-02T07:28:39;99217.09;;;5.51;82.58
47166;BME280;32930;51.112;13.762;2023-02-02T07:31:34;99225.75;;;5.61;82.99
47166;BME280;32930;51.112;13.762;2023-02-02T07:34:05;99228.81;;;5.45;84.91
47166;BME280;32930;51.112;13.762;2023-02-02T07:36:52;99240.09;;;5.57;85.03
47166;BME280;32930;51.112;13.762;2023-02-02T07:39:27;99240.03;;;5.54;86.28
47166;BME280;32930;51.112;13.762;2023-02-02T07:41:52;99235.59;;;5.43;87.93
47166;BME280;32930;51.112;13.762;2023-02-02T07:44:18;99239.03;;;5.46;88.17
47166;BME280;32930;51.112;13.762;2023-02-02T07:46:46;99234.28;;;5.63;87.73
47166;BME280;32930;51.112;13.762;2023-02-02T07:49:16;99245.84;;;5.47;88.83
47166;BME280;32930;51.112;13.762;2023-02-02T07:51:45;99248.50;;;5.53;86.59
47166;BME280;32930;51.112;13.762;2023-02-02T07:54:34;99254.63;;;5.63;86.80
47166;BME280;32930;51.112;13.762;2023-02-02T07:57:02;99251.25;;;5.64;86.66
47166;BME280;32930;51.112;13.762;2023-02-02T07:59:28;99259.06;;;5.72;85.85
47166;BME280;32930;51.112;13.762;2023-02-02T08:01:56;99260.69;;;5.68;84.65
47166;BME280;32930;51.112;13.762;2023-02-02T08:04:22;99270.88;;;5.68;85.81
47166;BME280;32930;51.112;13.762;2023-02-02T08:06:47;99260.81;;;5.74;85.91
47166;BME280;32930;51.112;13.762;2023-02-02T08:09:15;99265.72;;;5.67;84.51
47166;BME280;32930;51.112;13.762;2023-02-02T08:11:44;99267.09;;;5.49;85.84
47166;BME280;32930;51.112;13.762;2023-02-02T08:17:03;99268.53;;;5.79;83.50
47166;BME280;32930;51.112;13.762;2023-02-02T08:19:31;99279.53;;;5.78;84.43
47166;BME280;32930;51.112;13.762;2023-02-02T08:21:56;99277.06;;;5.81;83.82
47166;BME280;32930;51.112;13.762;2023-02-02T08:24:22;99275.97;;;5.70;84.33
47166;BME280;32930;51.112;13.762;2023-02-02T08:26:50;99284.97;;;5.93;83.11
47166;BME280;32930;51.112;13.762;2023-02-02T08:29:19;99293.13;;;5.80;83.71
47166;BME280;32930;51.112;13.762;2023-02-02T08:31:44;99301.50;;;5.73;84.30
47166;BME280;32930;51.112;13.762;2023-02-02T08:34:11;99302.44;;;5.78;84.14
47166;BME280;32930;51.112;13.762;2023-02-02T08:36:38;99302.44;;;5.78;84.15
47166;BME280;32930;51.112;13.762;2023-02-02T08:39:07;99301.78;;;5.87;83.52
47166;BME280;32930;51.112;13.762;2023-02-02T08:41:33;99295.84;;;5.88;83.74
47166;BME280;32930;51.112;13.762;2023-02-02T08:43:59;99302.31;;;5.72;83.71
47166;BME280;32930;51.112;13.762;2023-02-02T15:53:58;99739.81;;;6.26;92.76
47166;BME280;32930;51.112;13.762;2023-02-02T15:59:00;99752.47;;;6.23;92.76
47166;BME280;32930;51.112;13.762;2023-02-02T16:01:30;99773.44;;;6.13;92.82
47166;BME280;32930;51.112;13.762;2023-02-02T16:04:00;99788.19;;;6.24;92.12
47166;BME280;32930;51.112;13.762;2023-02-02T16:06:30;99800.44;;;6.06;92.67
47166;BME280;32930;51.112;13.762;2023-02-02T16:09:12;99814.41;;;5.92;94.28
47166;BME280;32930;51.112;13.762;2023-02-02T16:14:38;99805.47;;;6.04;95.21
47166;BME280;32930;51.112;13.762;2023-02-02T16:20:11;99820.56;;;5.98;96.12
47166;BME280;32930;51.112;13.762;2023-02-02T16:26:26;99842.41;;;5.90;95.29
47166;BME280;32930;51.112;13.762;2023-02-02T16:29:18;99817.78;;;6.86;100.00
47166;BME280;32930;51.112;13.762;2023-02-02T16:32:31;99847.81;;;6.64;96.96
47166;BME280;32930;51.112;13.762;2023-02-02T16:35:38;99864.56;;;6.55;92.44
47166;BME280;32930;51.112;13.762;2023-02-02T16:38:32;99867.34;;;6.31;92.15
47166;BME280;32930;51.112;13.762;2023-02-02T16:44:37;99862.59;;;6.13;95.42
47166;BME280;32930;51.112;13.762;2023-02-02T16:50:17;99875.72;;;5.98;94.34
47166;BME280;32930;51.112;13.762;2023-02-02T16:53:00;99879.53;;;5.84;93.31
47166;BME280;32930;51.112;13.762;2023-02-02T16:55:33;99882.78;;;5.79;93.13
47166;BME280;32930;51.112;13.762;2023-02-02T17:01:09;99890.41;;;5.78;94.04
47166;BME280;32930;51.112;13.762;2023-02-02T17:03:54;99895.97;;;5.66;94.33
47166;BME280;32930;51.112;13.762;2023-02-02T17:06:31;99896.66;;;5.61;93.98
47166;BME280;32930;51.112;13.762;2023-02-02T17:15:50;99912.44;;;5.49;95.63
47166;BME280;32930;51.112;13.762;2023-02-02T17:18:19;99920.41;;;5.61;95.24
47166;BME280;32930;51.112;13.762;2023-02-02T17:23:43;99933.38;;;5.69;95.58
47166;BME280;32930;51.112;13.762;2023-02-02T17:28:39;99942.31;;;5.56;96.93
47166;BME280;32930;51.112;13.762;2023-02-02T18:25:27;100008.09;;;5.45;99.47
47166;BME280;32930;51.112;13.762;2023-02-02T18:27:53;100012.53;;;5.76;96.77
47166;BME280;32930;51.112;13.762;2023-02-02T18:54:23;100024.00;;;5.64;99.11
47166;BME280;32930;51.112;13.762;2023-02-02T18:56:49;100027.81;;;5.51;99.49
47166;BME280;32930;51.112;13.762;2023-02-02T18:59:15;100019.06;;;5.68;98.30
47166;BME280;32930;51.112;13.762;2023-02-02T19:04:16;100023.84;;;5.59;98.45
47166;BME280;32930;51.112;13.762;2023-02-02T19:09:26;100027.03;;;5.52;99.71
47166;BME280;32930;51.112;13.762;2023-02-02T19:12:27;100029.16;;;5.40;99.12
47166;BME280;32930;51.112;13.762;2023-02-02T19:14:56;100037.75;;;5.43;98.99
47166;BME280;32930;51.112;13.762;2023-02-02T19:17:34;100034.34;;;5.43;98.96
47166;BME280;32930;51.112;13.762;2023-02-02T19:20:35;100042.13;;;5.47;98.46
47166;BME280;32930;51.112;13.762;2023-02-02T19:23:27;100038.59;;;5.44;97.92
47166;BME280;32930;51.112;13.762;2023-02-02T19:26:40;100047.72;;;5.37;97.46
47166;BME280;32930;51.112;13.762;2023-02-02T19:29:33;100046.84;;;5.37;98.19
47166;BME280;32930;51.112;13.762;2023-02-02T19:32:53;100060.16;;;5.29;97.72
47166;BME280;32930;51.112;13.762;2023-02-02T19:35:22;100057.09;;;5.14;97.93
47166;BME280;32930;51.112;13.762;2023-02-02T19:38:11;100057.47;;;5.25;97.95
47166;BME280;32930;51.112;13.762;2023-02-02T19:40:47;100059.78;;;5.43;96.67
47166;BME280;32930;51.112;13.762;2023-02-02T19:43:38;100056.00;;;5.31;98.02
47166;BME280;32930;51.112;13.762;2023-02-02T19:46:23;100060.72;;;5.21;97.95
47166;BME280;32930;51.112;13.762;2023-02-02T23:26:38;100018.56;;;5.03;97.11
47166;BME280;32930;51.112;13.762;2023-02-02T23:29:03;100029.66;;;5.05;96.39
47166;BME280;32930;51.112;13.762;2023-02-02T23:34:01;100037.78;;;4.95;97.66
47166;BME280;32930;51.112;13.762;2023-02-02T23:36:26;100038.25;;;5.09;96.79
47166;BME280;32930;51.112;13.762;2023-02-02T23:38:52;100047.81;;;5.16;96.44
47166;BME280;32930;51.112;13.762;2023-02-02T23:41:17;100044.72;;;5.23;95.07
47166;BME280;32930;51.112;13.762;2023-02-02T23:43:44;100050.25;;;5.37;93.92
47166;BME280;32930;51.112;13.762;2023-02-02T23:46:12;100036.69;;;5.37;93.81
47166;BME280;32930;51.112;13.762;2023-02-02T23:48:38;100033.31;;;5.38;93.72
47166;BME280;32930;51.112;13.762;2023-02-02T23:51:03;100027.91;;;5.28;93.51
47166;BME280;32930;51.112;13.762;2023-02-02T23:53:29;100029.84;;;5.35;92.72
47166;BME280;32930;51.112;13.762;2023-02-02T23:55:55;100036.16;;;5.21;91.88
47166;BME280;32930;51.112;13.762;2023-02-02T23:58:20;100030.88;;;5.41;92.45
